sensor_id;sensor_type;location;lat;lon;timestamp;pressure;altitude;pressure_sealevel;temperature;humidity
69796;BME280;57073;45.650;9.612;2023-04-07T00:02:02;99223.91;;;8.47;35.07
69796;BME280;57073;45.650;9.612;2023-04-07T00:07:02;99215.84;;;8.47;34.75
69796;BME280;57073;45.650;9.612;2023-04-07T00:12:03;99208.53;;;8.36;35.19
69796;BME280;57073;45.650;9.612;2023-04-07T00:17:03;99215.91;;;8.40;35.16
69796;BME280;57073;45.650;9.612;2023-04-07T00:22:04;99215.25;;;8.45;35.03
69796;BME280;57073;45.650;9.612;2023-04-07T00:27:04;99222.03;;;8.47;35.23
69796;BME280;57073;45.650;9.612;2023-04-07T00:32:05;99221.22;;;8.28;36.54
69796;BME280;57073;45.650;9.612;2023-04-07T00:37:05;99228.53;;;8.21;36.52
69796;BME280;57073;45.650;9.612;2023-04-07T00:42:05;99236.66;;;8.15;36.83
69796;BME280;57073;45.650;9.612;2023-04-07T00:47:07;99245.00;;;8.06;38.41
69796;BME280;57073;45.650;9.612;2023-04-07T00:52:08;99240.88;;;8.04;36.90
69796;BME280;57073;45.650;9.612;2023-04-07T00:57:10;99236.69;;;7.89;37.08
69796;BME280;57073;45.650;9.612;2023-04-07T01:02:17;99238.78;;;7.87;36.85
69796;BME280;57073;45.650;9.612;2023-04-07T01:07:25;99231.00;;;7.79;36.83
69796;BME280;57073;45.650;9.612;2023-04-07T01:17:33;99229.06;;;7.68;36.83
69796;BME280;57073;45.650;9.612;2023-04-07T01:22:46;99230.72;;;7.62;36.88
69796;BME280;57073;45.650;9.612;2023-04-07T01:33:06;99232.53;;;7.43;37.67
69796;BME280;57073;45.650;9.612;2023-04-07T01:38:09;99235.03;;;7.38;38.26
69796;BME280;57073;45.650;9.612;2023-04-07T01:43:11;99227.97;;;7.44;37.52
69796;BME280;57073;45.650;9.612;2023-04-07T01:48:12;99222.69;;;7.37;38.08
69796;BME280;57073;45.650;9.612;2023-04-07T01:53:15;99217.47;;;7.42;37.13
69796;BME280;57073;45.650;9.612;2023-04-07T01:58:16;99224.06;;;7.46;37.02
69796;BME280;57073;45.650;9.612;2023-04-07T02:03:22;99228.47;;;7.34;38.07
69796;BME280;57073;45.650;9.612;2023-04-07T02:08:25;99222.06;;;7.35;37.24
69796;BME280;57073;45.650;9.612;2023-04-07T02:13:28;99230.09;;;7.35;38.05
69796;BME280;57073;45.650;9.612;2023-04-07T02:18:30;99223.13;;;7.34;38.26
69796;BME280;57073;45.650;9.612;2023-04-07T02:23:34;99223.78;;;7.23;37.62
69796;BME280;57073;45.650;9.612;2023-04-07T02:28:34;99217.56;;;7.22;37.70
69796;BME280;57073;45.650;9.612;2023-04-07T02:33:35;99215.09;;;6.95;38.92
69796;BME280;57073;45.650;9.612;2023-04-07T02:38:35;99214.41;;;7.00;39.27
69796;BME280;57073;45.650;9.612;2023-04-07T02:43:36;99220.00;;;6.98;38.64
69796;BME280;57073;45.650;9.612;2023-04-07T02:48:37;99220.75;;;6.74;39.88
69796;BME280;57073;45.650;9.612;2023-04-07T02:53:37;99220.50;;;6.82;39.04
69796;BME280;57073;45.650;9.612;2023-04-07T02:58:38;99228.59;;;6.69;39.12
69796;BME280;57073;45.650;9.612;2023-04-07T03:03:38;99221.75;;;6.79;39.33
69796;BME280;57073;45.650;9.612;2023-04-07T03:08:39;99223.47;;;6.67;39.88
69796;BME280;57073;45.650;9.612;2023-04-07T03:13:39;99222.25;;;6.63;39.44
69796;BME280;57073;45.650;9.612;2023-04-07T03:18:39;99218.09;;;6.67;39.60
69796;BME280;57073;45.650;9.612;2023-04-07T03:23:40;99209.84;;;6.69;39.48
69796;BME280;57073;45.650;9.612;2023-04-07T03:28:40;99208.38;;;6.73;39.28
69796;BME280;57073;45.650;9.612;2023-04-07T03:33:41;99209.56;;;6.84;38.89
69796;BME280;57073;45.650;9.612;2023-04-07T03:38:41;99211.63;;;6.88;38.56
69796;BME280;57073;45.650;9.612;2023-04-07T03:43:41;99205.59;;;6.93;38.41
69796;BME280;57073;45.650;9.612;2023-04-07T03:48:42;99209.16;;;6.80;38.97
69796;BME280;57073;45.650;9.612;2023-04-07T03:53:42;99218.66;;;6.83;39.78
69796;BME280;57073;45.650;9.612;2023-04-07T03:58:43;99208.09;;;6.88;38.98
69796;BME280;57073;45.650;9.612;2023-04-07T04:03:43;99203.97;;;6.92;39.71
69796;BME280;57073;45.650;9.612;2023-04-07T04:08:43;99193.84;;;6.94;39.28
69796;BME280;57073;45.650;9.612;2023-04-07T04:13:44;99195.94;;;6.92;39.11
69796;BME280;57073;45.650;9.612;2023-04-07T04:18:44;99192.41;;;6.91;38.57
69796;BME280;57073;45.650;9.612;2023-04-07T04:23:45;99181.91;;;6.90;37.83
69796;BME280;57073;45.650;9.612;2023-04-07T04:28:45;99174.69;;;6.90;37.96
69796;BME280;57073;45.650;9.612;2023-04-07T04:33:45;99166.88;;;6.82;38.18
69796;BME280;57073;45.650;9.612;2023-04-07T04:38:46;99177.63;;;6.82;38.68
69796;BME280;57073;45.650;9.612;2023-04-07T04:43:46;99181.69;;;6.91;38.19
69796;BME280;57073;45.650;9.612;2023-04-07T04:48:46;99175.78;;;6.83;39.76
69796;BME280;57073;45.650;9.612;2023-04-07T04:53:47;99171.03;;;6.78;40.01
69796;BME280;57073;45.650;9.612;2023-04-07T04:58:47;99180.25;;;6.89;39.63
69796;BME280;57073;45.650;9.612;2023-04-07T05:03:48;99182.75;;;6.84;40.25
69796;BME280;57073;45.650;9.612;2023-04-07T05:08:49;99177.22;;;6.78;40.47
69796;BME280;57073;45.650;9.612;2023-04-07T05:13:49;99182.47;;;6.98;39.02
69796;BME280;57073;45.650;9.612;2023-04-07T05:18:50;99185.72;;;7.07;38.96
69796;BME280;57073;45.650;9.612;2023-04-07T05:23:50;99187.66;;;7.25;38.49
69796;BME280;57073;45.650;9.612;2023-04-07T05:28:50;99185.53;;;7.41;38.70
69796;BME280;57073;45.650;9.612;2023-04-07T05:33:51;99168.97;;;7.44;38.11
69796;BME280;57073;45.650;9.612;2023-04-07T05:38:51;99167.63;;;7.53;37.78
69796;BME280;57073;45.650;9.612;2023-04-07T05:43:51;99165.50;;;7.62;37.13
69796;BME280;57073;45.650;9.612;2023-04-07T05:48:52;99164.78;;;7.73;37.17
69796;BME280;57073;45.650;9.612;2023-04-07T05:53:52;99170.91;;;7.80;36.97
69796;BME280;57073;45.650;9.612;2023-04-07T05:58:52;99176.78;;;7.70;36.24
69796;BME280;57073;45.650;9.612;2023-04-07T06:03:53;99182.81;;;8.09;36.48
69796;BME280;57073;45.650;9.612;2023-04-07T06:08:53;99183.94;;;8.39;35.81
69796;BME280;57073;45.650;9.612;2023-04-07T06:13:53;99174.03;;;8.51;36.55
69796;BME280;57073;45.650;9.612;2023-04-07T06:18:54;99181.34;;;8.62;37.41
69796;BME280;57073;45.650;9.612;2023-04-07T06:23:54;99193.88;;;8.68;37.17
69796;BME280;57073;45.650;9.612;2023-04-07T06:28:55;99200.13;;;8.81;36.94
69796;BME280;57073;45.650;9.612;2023-04-07T06:33:55;99188.66;;;8.74;36.80
69796;BME280;57073;45.650;9.612;2023-04-07T06:38:56;99187.84;;;8.73;36.49
69796;BME280;57073;45.650;9.612;2023-04-07T06:43:56;99181.81;;;8.89;36.28
69796;BME280;57073;45.650;9.612;2023-04-07T06:48:56;99195.06;;;8.91;35.97
69796;BME280;57073;45.650;9.612;2023-04-07T06:53:57;99192.56;;;8.89;36.80
69796;BME280;57073;45.650;9.612;2023-04-07T06:58:57;99186.94;;;9.10;37.36
69796;BME280;57073;45.650;9.612;2023-04-07T07:03:57;99203.31;;;9.20;36.84
69796;BME280;57073;45.650;9.612;2023-04-07T07:08:59;99198.13;;;9.37;35.64
69796;BME280;57073;45.650;9.612;2023-04-07T07:14:02;99197.09;;;9.61;35.54
69796;BME280;57073;45.650;9.612;2023-04-07T07:19:02;99196.88;;;9.87;35.08
69796;BME280;57073;45.650;9.612;2023-04-07T07:24:02;99190.13;;;10.60;34.58
69796;BME280;57073;45.650;9.612;2023-04-07T07:29:03;99204.25;;;11.25;32.94
69796;BME280;57073;45.650;9.612;2023-04-07T07:34:03;99205.41;;;11.29;31.97
69796;BME280;57073;45.650;9.612;2023-04-07T07:39:03;99199.84;;;11.35;31.75
69796;BME280;57073;45.650;9.612;2023-04-07T07:44:04;99196.56;;;11.33;32.31
69796;BME280;57073;45.650;9.612;2023-04-07T07:49:05;99196.81;;;11.32;32.03
69796;BME280;57073;45.650;9.612;2023-04-07T07:54:05;99198.38;;;11.28;33.58
69796;BME280;57073;45.650;9.612;2023-04-07T07:59:05;99206.06;;;11.36;33.48
69796;BME280;57073;45.650;9.612;2023-04-07T08:04:06;99203.03;;;11.32;33.39
69796;BME280;57073;45.650;9.612;2023-04-07T08:09:06;99204.31;;;11.13;35.15
69796;BME280;57073;45.650;9.612;2023-04-07T08:14:06;99195.81;;;11.21;34.40
69796;BME280;57073;45.650;9.612;2023-04-07T08:19:07;99198.69;;;11.31;34.64
69796;BME280;57073;45.650;9.612;2023-04-07T08:24:08;99197.56;;;11.27;34.54
69796;BME280;57073;45.650;9.612;2023-04-07T08:29:09;99189.50;;;11.15;34.99
69796;BME280;57073;45.650;9.612;2023-04-07T08:34:10;99195.50;;;11.34;34.78
69796;BME280;57073;45.650;9.612;2023-04-07T08:39:10;99206.78;;;11.48;35.59
69796;BME280;57073;45.650;9.612;2023-04-07T08:44:11;99205.38;;;11.57;36.05
69796;BME280;57073;45.650;9.612;2023-04-07T08:49:15;99198.31;;;11.56;35.78
69796;BME280;57073;45.650;9.612;2023-04-07T08:54:17;99194.59;;;11.57;35.99
69796;BME280;57073;45.650;9.612;2023-04-07T08:59:18;99205.03;;;11.71;36.10
69796;BME280;57073;45.650;9.612;2023-04-07T09:04:22;99190.06;;;11.80;36.83
69796;BME280;57073;45.650;9.612;2023-04-07T09:09:23;99196.78;;;11.78;37.37
69796;BME280;57073;45.650;9.612;2023-04-07T09:14:24;99192.25;;;11.66;38.31
69796;BME280;57073;45.650;9.612;2023-04-07T09:19:26;99185.38;;;11.75;38.39
69796;BME280;57073;45.650;9.612;2023-04-07T09:24:28;99187.28;;;11.75;37.84
69796;BME280;57073;45.650;9.612;2023-04-07T09:29:30;99181.53;;;11.71;38.96
69796;BME280;57073;45.650;9.612;2023-04-07T09:34:33;99182.91;;;11.57;39.76
69796;BME280;57073;45.650;9.612;2023-04-07T09:39:48;99180.81;;;11.76;39.80
69796;BME280;57073;45.650;9.612;2023-04-07T09:44:49;99178.84;;;11.88;40.33
69796;BME280;57073;45.650;9.612;2023-04-07T09:49:51;99174.31;;;11.94;39.24
69796;BME280;57073;45.650;9.612;2023-04-07T09:54:53;99174.19;;;12.06;39.64
69796;BME280;57073;45.650;9.612;2023-04-07T09:59:55;99165.78;;;12.02;39.18
69796;BME280;57073;45.650;9.612;2023-04-07T10:04:56;99166.31;;;12.21;38.79
69796;BME280;57073;45.650;9.612;2023-04-07T10:09:58;99172.72;;;12.37;40.34
69796;BME280;57073;45.650;9.612;2023-04-07T10:14:59;99160.50;;;12.57;39.43
69796;BME280;57073;45.650;9.612;2023-04-07T10:20:03;99164.50;;;12.27;39.74
69796;BME280;57073;45.650;9.612;2023-04-07T10:30:13;99156.09;;;12.72;39.76
69796;BME280;57073;45.650;9.612;2023-04-07T10:35:15;99148.06;;;12.78;39.43
69796;BME280;57073;45.650;9.612;2023-04-07T10:56:06;99129.19;;;13.15;38.83
69796;BME280;57073;45.650;9.612;2023-04-07T11:06:12;99108.31;;;13.10;38.79
69796;BME280;57073;45.650;9.612;2023-04-07T11:11:14;99113.56;;;13.27;38.71
69796;BME280;57073;45.650;9.612;2023-04-07T11:16:16;99115.44;;;13.22;37.63
69796;BME280;57073;45.650;9.612;2023-04-07T11:21:18;99108.41;;;13.26;38.07
69796;BME280;57073;45.650;9.612;2023-04-07T11:26:18;99103.88;;;13.32;37.83
69796;BME280;57073;45.650;9.612;2023-04-07T11:31:27;99098.44;;;13.26;37.34
69796;BME280;57073;45.650;9.612;2023-04-07T11:41:45;99084.84;;;13.64;35.47
69796;BME280;57073;45.650;9.612;2023-04-07T11:46:56;99069.47;;;13.80;35.05
69796;BME280;57073;45.650;9.612;2023-04-07T11:52:02;99071.63;;;13.73;33.27
69796;BME280;57073;45.650;9.612;2023-04-07T11:57:02;99073.81;;;13.76;34.78
69796;BME280;57073;45.650;9.612;2023-04-07T12:02:03;99066.91;;;13.95;34.41
69796;BME280;57073;45.650;9.612;2023-04-07T12:07:12;99060.41;;;14.01;33.90
69796;BME280;57073;45.650;9.612;2023-04-07T12:12:12;99051.94;;;13.88;32.66
69796;BME280;57073;45.650;9.612;2023-04-07T12:17:23;99046.84;;;14.01;30.85
69796;BME280;57073;45.650;9.612;2023-04-07T12:22:24;99034.06;;;13.97;30.67
69796;BME280;57073;45.650;9.612;2023-04-07T12:27:25;99035.22;;;14.06;29.12
69796;BME280;57073;45.650;9.612;2023-04-07T12:32:25;99028.47;;;14.24;29.82
69796;BME280;57073;45.650;9.612;2023-04-07T12:37:25;99029.06;;;14.47;29.93
69796;BME280;57073;45.650;9.612;2023-04-07T12:42:26;99022.56;;;14.58;29.00
69796;BME280;57073;45.650;9.612;2023-04-07T12:47:27;99020.94;;;14.62;28.24
69796;BME280;57073;45.650;9.612;2023-04-07T12:52:27;99010.34;;;14.40;27.31
69796;BME280;57073;45.650;9.612;2023-04-07T12:57:27;99005.31;;;13.85;28.58
69796;BME280;57073;45.650;9.612;2023-04-07T13:02:28;98995.28;;;13.91;29.06
69796;BME280;57073;45.650;9.612;2023-04-07T13:07:28;99000.75;;;13.96;29.41
69796;BME280;57073;45.650;9.612;2023-04-07T13:12:28;98990.34;;;13.78;29.33
69796;BME280;57073;45.650;9.612;2023-04-07T13:17:29;98976.88;;;13.88;29.67
69796;BME280;57073;45.650;9.612;2023-04-07T13:22:29;98981.19;;;13.84;29.18
69796;BME280;57073;45.650;9.612;2023-04-07T13:27:30;98972.94;;;13.58;28.86
69796;BME280;57073;45.650;9.612;2023-04-07T13:32:30;98960.22;;;13.64;28.74
69796;BME280;57073;45.650;9.612;2023-04-07T13:37:31;98969.16;;;13.59;28.17
69796;BME280;57073;45.650;9.612;2023-04-07T13:42:31;98959.28;;;13.38;30.12
69796;BME280;57073;45.650;9.612;2023-04-07T13:47:31;98949.94;;;13.61;29.93
69796;BME280;57073;45.650;9.612;2023-04-07T13:52:33;98950.19;;;13.70;30.08
69796;BME280;57073;45.650;9.612;2023-04-07T13:57:34;98947.53;;;13.80;30.77
69796;BME280;57073;45.650;9.612;2023-04-07T14:02:35;98952.97;;;13.80;30.73
69796;BME280;57073;45.650;9.612;2023-04-07T14:07:35;98942.78;;;14.23;30.61
69796;BME280;57073;45.650;9.612;2023-04-07T14:12:35;98948.47;;;14.42;30.32
69796;BME280;57073;45.650;9.612;2023-04-07T14:17:36;98954.72;;;14.27;30.49
69796;BME280;57073;45.650;9.612;2023-04-07T14:22:36;98951.75;;;14.49;30.98
69796;BME280;57073;45.650;9.612;2023-04-07T14:27:36;98950.06;;;14.07;32.90
69796;BME280;57073;45.650;9.612;2023-04-07T14:32:37;98946.38;;;13.60;34.97
69796;BME280;57073;45.650;9.612;2023-04-07T14:37:37;98953.47;;;13.77;34.06
69796;BME280;57073;45.650;9.612;2023-04-07T14:42:38;98948.84;;;13.67;33.27
69796;BME280;57073;45.650;9.612;2023-04-07T14:47:39;98945.53;;;13.49;34.29
69796;BME280;57073;45.650;9.612;2023-04-07T14:52:39;98944.09;;;14.05;32.59
69796;BME280;57073;45.650;9.612;2023-04-07T14:57:39;98946.03;;;14.04;33.26
69796;BME280;57073;45.650;9.612;2023-04-07T15:02:40;98954.69;;;14.22;33.39
69796;BME280;57073;45.650;9.612;2023-04-07T15:07:40;98941.13;;;14.07;34.20
69796;BME280;57073;45.650;9.612;2023-04-07T15:12:41;98949.28;;;14.22;33.70
69796;BME280;57073;45.650;9.612;2023-04-07T15:17:41;98952.81;;;14.33;33.75
69796;BME280;57073;45.650;9.612;2023-04-07T15:22:41;98963.13;;;14.20;33.83
69796;BME280;57073;45.650;9.612;2023-04-07T15:27:42;98949.78;;;13.88;34.32
69796;BME280;57073;45.650;9.612;2023-04-07T15:32:58;98963.25;;;13.78;34.54
69796;BME280;57073;45.650;9.612;2023-04-07T15:37:59;98971.34;;;13.73;34.43
69796;BME280;57073;45.650;9.612;2023-04-07T15:42:59;98988.13;;;13.59;34.56
69796;BME280;57073;45.650;9.612;2023-04-07T15:48:00;98993.56;;;13.70;34.43
69796;BME280;57073;45.650;9.612;2023-04-07T15:53:01;99001.91;;;13.58;35.15
69796;BME280;57073;45.650;9.612;2023-04-07T15:58:03;99010.88;;;13.63;37.80
69796;BME280;57073;45.650;9.612;2023-04-07T16:03:04;99014.00;;;13.40;39.76
69796;BME280;57073;45.650;9.612;2023-04-07T16:08:04;99007.94;;;12.52;40.36
69796;BME280;57073;45.650;9.612;2023-04-07T16:13:05;99026.06;;;12.52;43.03
69796;BME280;57073;45.650;9.612;2023-04-07T16:18:08;99042.59;;;12.61;43.94
69796;BME280;57073;45.650;9.612;2023-04-07T16:23:09;99048.75;;;12.51;49.45
69796;BME280;57073;45.650;9.612;2023-04-07T16:28:09;99059.25;;;12.47;49.87
69796;BME280;57073;45.650;9.612;2023-04-07T16:33:10;99054.75;;;12.31;49.21
69796;BME280;57073;45.650;9.612;2023-04-07T16:38:11;99051.00;;;12.10;48.00
69796;BME280;57073;45.650;9.612;2023-04-07T16:43:11;99056.81;;;11.74;48.35
69796;BME280;57073;45.650;9.612;2023-04-07T16:48:11;99049.69;;;11.68;48.60
69796;BME280;57073;45.650;9.612;2023-04-07T16:53:12;99050.19;;;11.65;49.65
69796;BME280;57073;45.650;9.612;2023-04-07T16:58:12;99057.84;;;11.73;49.68
69796;BME280;57073;45.650;9.612;2023-04-07T17:03:14;99048.66;;;11.52;51.97
69796;BME280;57073;45.650;9.612;2023-04-07T17:08:14;99051.66;;;11.56;50.88
69796;BME280;57073;45.650;9.612;2023-04-07T17:13:15;99051.34;;;11.52;52.10
69796;BME280;57073;45.650;9.612;2023-04-07T17:18:15;99058.69;;;11.57;52.03
69796;BME280;57073;45.650;9.612;2023-04-07T17:23:15;99060.09;;;11.43;54.16
69796;BME280;57073;45.650;9.612;2023-04-07T17:28:16;99055.28;;;11.45;54.43
69796;BME280;57073;45.650;9.612;2023-04-07T17:33:16;99047.94;;;11.40;54.00
69796;BME280;57073;45.650;9.612;2023-04-07T17:38:17;99064.81;;;11.30;54.75
69796;BME280;57073;45.650;9.612;2023-04-07T17:43:17;99071.50;;;10.94;54.23
69796;BME280;57073;45.650;9.612;2023-04-07T17:48:17;99071.25;;;10.78;54.85
69796;BME280;57073;45.650;9.612;2023-04-07T17:53:18;99066.41;;;10.64;56.51
69796;BME280;57073;45.650;9.612;2023-04-07T17:58:18;99070.63;;;10.59;57.66
69796;BME280;57073;45.650;9.612;2023-04-07T18:03:21;99079.81;;;10.58;56.77
69796;BME280;57073;45.650;9.612;2023-04-07T18:08:22;99080.06;;;10.45;58.44
69796;BME280;57073;45.650;9.612;2023-04-07T18:13:23;99094.97;;;10.93;57.51
69796;BME280;57073;45.650;9.612;2023-04-07T18:18:23;99094.41;;;10.91;57.06
69796;BME280;57073;45.650;9.612;2023-04-07T18:23:23;99100.19;;;10.83;56.89
69796;BME280;57073;45.650;9.612;2023-04-07T18:28:24;99101.63;;;10.74;57.70
69796;BME280;57073;45.650;9.612;2023-04-07T18:33:24;99110.81;;;10.73;57.83
69796;BME280;57073;45.650;9.612;2023-04-07T18:38:25;99116.00;;;10.63;57.40
69796;BME280;57073;45.650;9.612;2023-04-07T18:43:25;99115.84;;;10.69;56.94
69796;BME280;57073;45.650;9.612;2023-04-07T18:48:26;99123.28;;;10.62;57.11
69796;BME280;57073;45.650;9.612;2023-04-07T18:53:27;99127.34;;;10.65;57.54
69796;BME280;57073;45.650;9.612;2023-04-07T18:58:28;99124.41;;;10.66;56.57
69796;BME280;57073;45.650;9.612;2023-04-07T19:03:28;99131.41;;;10.50;57.57
69796;BME280;57073;45.650;9.612;2023-04-07T19:08:28;99140.78;;;10.48;57.09
69796;BME280;57073;45.650;9.612;2023-04-07T19:13:29;99140.22;;;10.46;56.93
69796;BME280;57073;45.650;9.612;2023-04-07T19:18:29;99147.97;;;10.30;58.20
69796;BME280;57073;45.650;9.612;2023-04-07T19:23:30;99148.47;;;10.27;57.07
69796;BME280;57073;45.650;9.612;2023-04-07T19:28:31;99158.41;;;10.27;56.85
69796;BME280;57073;45.650;9.612;2023-04-07T19:33:33;99160.50;;;10.24;54.92
69796;BME280;57073;45.650;9.612;2023-04-07T19:38:34;99157.00;;;10.12;54.41
69796;BME280;57073;45.650;9.612;2023-04-07T19:43:34;99154.47;;;10.06;54.40
69796;BME280;57073;45.650;9.612;2023-04-07T19:48:35;99158.66;;;10.01;54.01
69796;BME280;57073;45.650;9.612;2023-04-07T19:53:36;99164.78;;;9.97;52.42
69796;BME280;57073;45.650;9.612;2023-04-07T19:58:36;99156.00;;;9.90;52.66
69796;BME280;57073;45.650;9.612;2023-04-07T20:03:37;99163.97;;;9.84;53.40
69796;BME280;57073;45.650;9.612;2023-04-07T20:08:42;99167.94;;;9.94;52.91
69796;BME280;57073;45.650;9.612;2023-04-07T20:13:43;99168.31;;;9.85;53.56
69796;BME280;57073;45.650;9.612;2023-04-07T20:18:43;99173.22;;;9.89;53.37
69796;BME280;57073;45.650;9.612;2023-04-07T20:23:43;99166.19;;;9.88;53.56
69796;BME280;57073;45.650;9.612;2023-04-07T20:28:44;99166.69;;;9.73;53.98
69796;BME280;57073;45.650;9.612;2023-04-07T20:33:44;99180.38;;;9.71;52.90
69796;BME280;57073;45.650;9.612;2023-04-07T20:38:46;99177.78;;;9.64;53.74
69796;BME280;57073;45.650;9.612;2023-04-07T20:43:49;99168.53;;;9.72;54.26
69796;BME280;57073;45.650;9.612;2023-04-07T20:48:50;99185.28;;;9.62;54.86
69796;BME280;57073;45.650;9.612;2023-04-07T20:53:50;99189.94;;;9.55;55.47
69796;BME280;57073;45.650;9.612;2023-04-07T20:58:51;99194.28;;;9.68;55.05
69796;BME280;57073;45.650;9.612;2023-04-07T21:03:51;99194.28;;;9.68;55.31
69796;BME280;57073;45.650;9.612;2023-04-07T21:08:52;99200.72;;;9.55;55.60
69796;BME280;57073;45.650;9.612;2023-04-07T21:13:53;99209.47;;;9.51;56.54
69796;BME280;57073;45.650;9.612;2023-04-07T21:18:53;99204.81;;;9.46;56.77
69796;BME280;57073;45.650;9.612;2023-04-07T21:23:53;99209.34;;;9.34;55.74
69796;BME280;57073;45.650;9.612;2023-04-07T21:28:54;99198.66;;;9.27;55.77
69796;BME280;57073;45.650;9.612;2023-04-07T21:33:54;99203.31;;;9.20;55.24
69796;BME280;57073;45.650;9.612;2023-04-07T21:38:54;99198.81;;;9.02;56.97
69796;BME280;57073;45.650;9.612;2023-04-07T21:43:55;99198.50;;;9.10;56.39
69796;BME280;57073;45.650;9.612;2023-04-07T21:48:55;99195.78;;;8.98;57.57
69796;BME280;57073;45.650;9.612;2023-04-07T21:53:56;99195.50;;;8.88;58.52
69796;BME280;57073;45.650;9.612;2023-04-07T21:58:57;99193.94;;;8.80;57.86
69796;BME280;57073;45.650;9.612;2023-04-07T22:03:57;99197.66;;;8.79;58.36
69796;BME280;57073;45.650;9.612;2023-04-07T22:08:57;99196.75;;;8.85;57.62
69796;BME280;57073;45.650;9.612;2023-04-07T22:13:58;99205.22;;;8.70;58.12
69796;BME280;57073;45.650;9.612;2023-04-07T22:18:58;99207.09;;;8.70;57.01
69796;BME280;57073;45.650;9.612;2023-04-07T22:23:59;99211.25;;;8.84;56.41
69796;BME280;57073;45.650;9.612;2023-04-07T22:28:59;99223.66;;;8.67;57.14
69796;BME280;57073;45.650;9.612;2023-04-07T22:34:00;99217.41;;;8.55;58.54
69796;BME280;57073;45.650;9.612;2023-04-07T22:39:00;99214.22;;;8.46;59.24
69796;BME280;57073;45.650;9.612;2023-04-07T22:44:00;99207.78;;;8.47;58.91
69796;BME280;57073;45.650;9.612;2023-04-07T22:49:01;99215.19;;;8.33;59.73
69796;BME280;57073;45.650;9.612;2023-04-07T22:54:01;99200.03;;;8.20;59.26
69796;BME280;57073;45.650;9.612;2023-04-07T22:59:02;99215.84;;;8.28;58.57
69796;BME280;57073;45.650;9.612;2023-04-07T23:04:04;99221.66;;;8.25;58.20
69796;BME280;57073;45.650;9.612;2023-04-07T23:09:05;99215.25;;;8.08;58.54
69796;BME280;57073;45.650;9.612;2023-04-07T23:14:05;99212.69;;;8.13;57.84
69796;BME280;57073;45.650;9.612;2023-04-07T23:19:06;99218.00;;;8.01;58.31
69796;BME280;57073;45.650;9.612;2023-04-07T23:24:10;99210.97;;;8.00;57.29
69796;BME280;57073;45.650;9.612;2023-04-07T23:29:10;99213.59;;;7.88;57.93
69796;BME280;57073;45.650;9.612;2023-04-07T23:34:11;99222.28;;;7.84;58.21
69796;BME280;57073;45.650;9.612;2023-04-07T23:39:11;99229.75;;;7.82;58.05
69796;BME280;57073;45.650;9.612;2023-04-07T23:44:12;99227.66;;;7.84;57.43
69796;BME280;57073;45.650;9.612;2023-04-07T23:49:12;99219.47;;;7.79;55.65
69796;BME280;57073;45.650;9.612;2023-04-07T23:54:13;99232.50;;;7.75;54.94
69796;BME280;57073;45.650;9.612;2023-04-07T23:59:13;99226.69;;;7.78;54.10
